createdAt,value
2023-05-10T00:01:42.498Z,19.87
2023-05-10T00:06:46.098Z,19.87
2023-05-10T00:11:48.504Z,19.85
2023-05-10T00:16:50.753Z,19.82
2023-05-10T00:21:53.051Z,19.80
2023-05-10T00:26:55.169Z,19.74
2023-05-10T00:31:57.408Z,19.68
2023-05-10T00:36:59.554Z,19.60
2023-05-10T00:42:05.594Z,19.57
2023-05-10T00:47:09.005Z,19.54
2023-05-10T00:52:11.229Z,19.51
2023-05-10T00:57:13.297Z,19.50
2023-05-10T01:05:13.803Z,19.47
2023-05-10T01:10:15.977Z,19.46
2023-05-10T01:15:19.102Z,19.40
2023-05-10T01:25:55.737Z,19.29
2023-05-10T01:31:24.770Z,19.24
2023-05-10T01:36:40.522Z,19.19
2023-05-10T01:42:06.723Z,19.15
2023-05-10T01:47:11.115Z,19.13
2023-05-10T01:52:22.504Z,19.11
2023-05-10T01:57:28.998Z,19.09
2023-05-10T02:02:37.845Z,19.11
2023-05-10T02:07:43.795Z,19.09
2023-05-10T02:12:49.570Z,19.09
2023-05-10T02:17:55.657Z,19.09
2023-05-10T02:22:59.611Z,19.06
2023-05-10T02:28:05.622Z,19.04
2023-05-10T02:33:09.036Z,19.02
2023-05-10T02:38:13.653Z,18.97
2023-05-10T02:43:17.522Z,18.94
2023-05-10T02:48:19.506Z,18.91
2023-05-10T02:53:24.632Z,18.85
2023-05-10T02:58:27.647Z,18.84
2023-05-10T03:03:29.793Z,18.83
2023-05-10T03:08:32.504Z,18.84
2023-05-10T03:13:45.524Z,18.87
2023-05-10T03:19:02.829Z,18.91
2023-05-10T03:24:10.108Z,18.94
2023-05-10T03:29:15.357Z,18.95
2023-05-10T03:34:18.462Z,18.95
2023-05-10T03:39:22.324Z,18.95
2023-05-10T03:44:29.296Z,18.94
2023-05-10T03:49:31.485Z,18.95
2023-05-10T03:54:33.777Z,18.95
2023-05-10T03:59:35.993Z,18.94
2023-05-10T04:04:38.338Z,18.98
2023-05-10T04:09:41.930Z,19.00
2023-05-10T04:16:20.152Z,19.02
2023-05-10T04:21:22.254Z,19.03
2023-05-10T04:26:26.119Z,19.05
2023-05-10T04:32:46.710Z,19.04
2023-05-10T04:37:51.827Z,18.84
2023-05-10T04:42:53.792Z,18.59
2023-05-10T04:47:56.153Z,18.30
2023-05-10T04:52:58.392Z,18.11
2023-05-10T04:58:00.461Z,18.00
2023-05-10T05:03:02.535Z,17.92
2023-05-10T05:08:04.980Z,17.88
2023-05-10T05:13:07.358Z,17.86
2023-05-10T05:18:09.540Z,17.82
2023-05-10T05:23:11.573Z,17.76
2023-05-10T05:28:13.526Z,17.73
2023-05-10T05:33:16.494Z,17.65
2023-05-10T05:38:18.641Z,17.65
2023-05-10T05:43:20.672Z,17.64
2023-05-10T05:48:22.828Z,17.62
2023-05-10T05:53:25.031Z,17.64
2023-05-10T05:58:27.167Z,17.65
2023-05-10T06:03:29.397Z,17.69
2023-05-10T06:08:31.375Z,17.73
2023-05-10T06:13:34.496Z,17.76
2023-05-10T06:18:37.032Z,17.85
2023-05-10T06:23:39.090Z,17.86
2023-05-10T06:28:41.879Z,17.90
2023-05-10T06:33:43.865Z,17.95
2023-05-10T06:38:45.919Z,18.03
2023-05-10T06:43:48.214Z,18.15
2023-05-10T06:48:50.238Z,18.30
2023-05-10T06:53:52.114Z,18.49
2023-05-10T06:58:54.371Z,18.75
2023-05-10T07:03:56.509Z,19.02
2023-05-10T07:08:58.723Z,19.39
2023-05-10T07:14:00.808Z,19.74
2023-05-10T07:22:46.355Z,20.38
2023-05-10T07:28:17.403Z,20.69
2023-05-10T07:33:19.710Z,20.92
2023-05-10T07:38:22.030Z,21.04
2023-05-10T07:43:24.171Z,20.84
2023-05-10T07:48:26.501Z,20.79
2023-05-10T07:53:28.688Z,20.65
2023-05-10T07:58:31.184Z,20.55
2023-05-10T08:03:33.260Z,20.48
2023-05-10T08:08:35.350Z,20.47
2023-05-10T08:13:37.416Z,20.49
2023-05-10T08:18:40.581Z,20.70
2023-05-10T08:23:50.156Z,21.11
2023-05-10T08:28:52.167Z,21.62
2023-05-10T08:33:54.263Z,21.97
2023-05-10T08:38:56.214Z,22.17
2023-05-10T08:43:58.731Z,22.31
2023-05-10T08:49:09.983Z,22.48
2023-05-10T08:54:12.150Z,22.54
2023-05-10T08:59:15.293Z,22.48
2023-05-10T09:04:17.500Z,22.65
2023-05-10T09:09:21.646Z,22.69
2023-05-10T09:14:26.025Z,22.55
2023-05-10T09:19:29.277Z,22.52
2023-05-10T09:24:38.894Z,22.56
2023-05-10T09:29:42.567Z,22.55
2023-05-10T09:34:45.996Z,22.67
2023-05-10T09:39:48.020Z,22.88
2023-05-10T09:44:50.056Z,23.22
2023-05-10T09:49:53.706Z,22.86
2023-05-10T09:54:56.072Z,23.00
2023-05-10T10:00:01.520Z,23.22
2023-05-10T10:05:05.005Z,23.29
2023-05-10T10:10:13.315Z,23.01
2023-05-10T10:15:16.935Z,22.95
2023-05-10T10:20:20.926Z,23.04
2023-05-10T10:25:23.454Z,22.70
2023-05-10T10:30:38.069Z,22.59
2023-05-10T10:35:40.453Z,22.41
2023-05-10T10:40:46.664Z,22.35
2023-05-10T10:46:15.007Z,22.15
2023-05-10T10:51:18.555Z,21.74
2023-05-10T10:56:24.713Z,21.85
2023-05-10T11:01:34.315Z,22.07
2023-05-10T11:06:37.153Z,22.08
2023-05-10T11:12:01.602Z,21.67
2023-05-10T11:17:28.882Z,21.11
2023-05-10T11:22:52.882Z,21.26
2023-05-10T11:28:20.772Z,21.06
2023-05-10T11:33:22.848Z,21.08
2023-05-10T11:38:24.912Z,21.08
2023-05-10T11:43:31.530Z,20.77
2023-05-10T11:48:34.358Z,20.21
2023-05-10T11:53:36.443Z,20.25
2023-05-10T11:58:39.777Z,20.30
2023-05-10T12:03:42.142Z,20.45
2023-05-10T12:08:49.145Z,20.47
2023-05-10T12:13:51.589Z,20.33
2023-05-10T12:18:58.510Z,20.25
2023-05-10T12:24:03.433Z,20.16
2023-05-10T12:29:15.371Z,20.02
2023-05-10T12:34:32.816Z,20.26
2023-05-10T12:39:45.736Z,20.14
2023-05-10T12:44:47.838Z,20.24
2023-05-10T12:49:50.174Z,20.35
2023-05-10T12:54:53.715Z,20.41
2023-05-10T12:59:56.160Z,20.39
2023-05-10T13:04:58.236Z,20.31
2023-05-10T13:10:00.562Z,20.39
2023-05-10T13:15:04.119Z,20.54
2023-05-10T13:20:06.843Z,20.29
2023-05-10T13:25:09.674Z,20.31
2023-05-10T13:30:12.597Z,20.26
2023-05-10T13:35:14.711Z,20.06
2023-05-10T13:40:17.225Z,20.13
2023-05-10T13:50:21.584Z,20.18
2023-05-10T13:55:23.764Z,20.15
2023-05-10T14:00:25.817Z,20.20
2023-05-10T14:05:32.131Z,20.04
2023-05-10T14:10:34.326Z,20.03
2023-05-10T14:15:36.303Z,20.13
2023-05-10T14:20:38.560Z,20.16
2023-05-10T14:25:41.922Z,20.06
2023-05-10T14:30:44.158Z,19.87
2023-05-10T14:35:47.850Z,19.91
2023-05-10T14:40:50.463Z,19.97
2023-05-10T14:45:55.083Z,19.80
2023-05-10T14:50:57.221Z,19.87
2023-05-10T14:56:01.344Z,20.11
2023-05-10T15:01:03.776Z,19.92
2023-05-10T15:06:06.734Z,19.73
2023-05-10T15:11:08.963Z,19.60
2023-05-10T15:16:11.868Z,19.63
2023-05-10T15:22:46.601Z,19.79
2023-05-10T15:27:48.880Z,19.88
2023-05-10T15:32:51.148Z,19.94
2023-05-10T15:37:53.496Z,19.89
2023-05-10T15:42:55.736Z,19.90
2023-05-10T15:47:59.275Z,20.16
2023-05-10T15:53:01.467Z,20.20
2023-05-10T15:58:05.965Z,20.32
2023-05-10T16:03:08.391Z,20.34
2023-05-10T16:08:10.538Z,20.37
2023-05-10T16:13:12.554Z,20.35
2023-05-10T16:18:14.799Z,20.17
2023-05-10T16:23:17.632Z,20.04
2023-05-10T16:28:21.281Z,20.04
2023-05-10T16:33:23.454Z,20.04
2023-05-10T16:38:26.830Z,19.96
2023-05-10T16:43:28.680Z,20.08
2023-05-10T16:48:30.781Z,19.98
2023-05-10T16:53:32.909Z,19.99
2023-05-10T16:58:43.900Z,20.08
2023-05-10T17:03:46.511Z,20.03
2023-05-10T17:08:48.666Z,19.97
2023-05-10T17:13:52.401Z,19.84
2023-05-10T17:18:54.282Z,19.72
2023-05-10T17:23:56.293Z,19.73
2023-05-10T17:28:58.833Z,19.68
2023-05-10T17:34:02.191Z,19.59
2023-05-10T17:39:06.359Z,19.65
2023-05-10T17:44:08.344Z,19.53
2023-05-10T17:49:10.636Z,19.37
2023-05-10T17:54:12.628Z,19.31
2023-05-10T17:59:14.569Z,19.25
2023-05-10T18:04:16.853Z,19.28
2023-05-10T18:09:21.193Z,19.21
2023-05-10T18:14:36.461Z,19.13
2023-05-10T18:19:42.766Z,18.99
2023-05-10T18:24:45.102Z,18.89
2023-05-10T18:29:47.390Z,18.85
2023-05-10T18:34:49.544Z,18.82
2023-05-10T18:39:51.908Z,18.77
2023-05-10T18:44:54.991Z,18.71
2023-05-10T18:49:57.351Z,18.69
2023-05-10T18:54:59.391Z,18.68
2023-05-10T19:00:01.447Z,18.65
2023-05-10T19:05:03.588Z,18.62
2023-05-10T19:10:07.465Z,18.57
2023-05-10T19:15:10.506Z,18.52
2023-05-10T19:20:12.477Z,18.57
2023-05-10T19:25:16.931Z,18.56
2023-05-10T19:30:19.093Z,18.55
2023-05-10T19:35:21.011Z,18.48
2023-05-10T19:43:17.937Z,18.49
2023-05-10T19:48:23.686Z,18.47
2023-05-10T19:53:25.642Z,18.44
2023-05-10T19:58:28.919Z,18.48
2023-05-10T20:03:30.949Z,18.48
2023-05-10T20:08:35.409Z,18.41
2023-05-10T20:13:37.480Z,18.37
2023-05-10T20:22:53.104Z,18.18
2023-05-10T20:28:06.251Z,18.13
2023-05-10T20:33:09.392Z,18.14
2023-05-10T20:38:11.503Z,18.10
2023-05-10T20:43:13.313Z,18.07
2023-05-10T20:48:15.668Z,18.04
2023-05-10T20:53:25.983Z,17.96
2023-05-10T20:58:28.228Z,17.99
2023-05-10T21:03:30.232Z,17.92
2023-05-10T21:08:32.160Z,17.89
2023-05-10T21:13:34.034Z,17.89
2023-05-10T21:18:39.114Z,17.86
2023-05-10T21:23:46.449Z,17.86
2023-05-10T21:28:48.621Z,17.86
2023-05-10T21:33:50.921Z,17.86
2023-05-10T21:38:52.904Z,17.88
2023-05-10T21:43:54.865Z,17.87
2023-05-10T21:48:57.410Z,17.84
2023-05-10T21:53:59.635Z,17.82
2023-05-10T21:59:04.954Z,17.77
2023-05-10T22:04:07.029Z,17.77
2023-05-10T22:09:10.107Z,17.78
2023-05-10T22:14:12.249Z,17.80
2023-05-10T22:19:14.063Z,17.77
2023-05-10T22:35:16.603Z,17.78
2023-05-10T22:41:14.756Z,17.82
2023-05-10T22:46:16.875Z,17.92
2023-05-10T22:51:19.019Z,17.91
2023-05-10T22:56:22.718Z,17.93
2023-05-10T23:01:24.985Z,17.92
2023-05-10T23:06:28.246Z,18.01
2023-05-10T23:11:30.234Z,18.10
2023-05-10T23:16:32.316Z,18.15
2023-05-10T23:21:34.588Z,18.17
2023-05-10T23:26:36.710Z,18.21
2023-05-10T23:31:41.127Z,18.24
2023-05-10T23:36:43.449Z,18.25
2023-05-10T23:41:45.663Z,18.33
2023-05-10T23:46:48.771Z,18.38
2023-05-10T23:51:50.793Z,18.45
2023-05-10T23:56:52.920Z,18.50
